createdAt,value
2019-05-12T00:03:42.573Z,2.87
2019-05-12T00:08:48.843Z,2.50
2019-05-12T00:13:53.395Z,2.40
2019-05-12T00:18:59.284Z,2.67
2019-05-12T00:24:08.725Z,2.50
2019-05-12T00:29:13.177Z,2.87
2019-05-12T00:34:18.417Z,2.70
2019-05-12T00:39:24.115Z,2.60
2019-05-12T00:44:28.633Z,2.17
2019-05-12T00:49:32.998Z,1.83
2019-05-12T00:54:38.125Z,2.10
2019-05-12T00:59:42.465Z,2.07
2019-05-12T01:04:48.720Z,2.03
2019-05-12T01:09:52.943Z,2.22
2019-05-12T01:14:58.531Z,2.40
2019-05-12T01:20:02.974Z,2.10
2019-05-12T01:25:08.606Z,2.33
2019-05-12T01:30:13.646Z,2.23
2019-05-12T01:35:18.524Z,2.30
2019-05-12T01:40:23.062Z,2.50
2019-05-12T01:45:28.859Z,2.60
2019-05-12T01:50:33.449Z,2.77
2019-05-12T01:55:38.971Z,2.80
2019-05-12T02:00:45.431Z,2.67
2019-05-12T02:05:51.452Z,2.43
2019-05-12T02:11:00.134Z,2.70
2019-05-12T02:16:04.468Z,2.52
2019-05-12T02:21:08.822Z,2.90
2019-05-12T02:26:13.187Z,3.20
2019-05-12T02:31:20.788Z,3.03
2019-05-12T02:36:25.780Z,2.40
2019-05-12T02:41:29.659Z,2.80
2019-05-12T02:46:34.771Z,3.03
2019-05-12T02:51:39.642Z,3.10
2019-05-12T02:56:45.770Z,3.13
2019-05-12T03:01:55.021Z,2.80
2019-05-12T03:07:06.166Z,2.97
2019-05-12T03:12:08.486Z,2.73
2019-05-12T03:17:15.360Z,2.60
2019-05-12T03:22:18.942Z,3.33
2019-05-12T03:27:25.653Z,2.80
2019-05-12T03:32:29.369Z,2.93
2019-05-12T03:37:35.317Z,2.97
2019-05-12T03:42:39.850Z,3.00
2019-05-12T03:47:45.544Z,2.43
2019-05-12T03:52:50.205Z,3.10
2019-05-12T03:57:55.209Z,2.60
2019-05-12T04:02:59.711Z,2.77
2019-05-12T04:08:05.744Z,2.53
2019-05-12T04:13:10.705Z,2.77
2019-05-12T04:18:16.070Z,2.70
2019-05-12T04:23:20.873Z,2.50
2019-05-12T04:28:25.262Z,2.47
2019-05-12T04:33:29.577Z,2.87
2019-05-12T04:38:35.484Z,2.67
2019-05-12T04:43:40.090Z,2.87
2019-05-12T04:48:45.423Z,2.90
2019-05-12T04:53:49.993Z,2.90
2019-05-12T04:58:54.768Z,2.70
2019-05-12T05:03:59.149Z,2.80
2019-05-12T05:09:05.636Z,3.30
2019-05-12T05:14:09.981Z,2.87
2019-05-12T05:19:14.405Z,2.57
2019-05-12T05:24:18.773Z,2.83
2019-05-12T05:29:24.017Z,2.80
2019-05-12T05:34:28.492Z,2.50
2019-05-12T05:39:35.723Z,2.40
2019-05-12T05:44:39.938Z,2.50
2019-05-12T05:49:44.297Z,2.70
2019-05-12T05:54:48.681Z,2.40
2019-05-12T05:59:53.785Z,2.80
2019-05-12T06:04:58.347Z,2.43
2019-05-12T06:10:04.082Z,2.10
2019-05-12T06:15:09.121Z,2.00
2019-05-12T06:20:13.861Z,2.20
2019-05-12T06:25:18.255Z,2.17
2019-05-12T06:30:24.285Z,2.33
2019-05-12T06:35:30.997Z,2.90
2019-05-12T06:40:40.816Z,2.77
2019-05-12T06:45:43.291Z,3.00
2019-05-12T06:50:47.080Z,3.40
2019-05-12T06:55:53.861Z,3.53
2019-05-12T07:01:02.401Z,3.63
2019-05-12T07:06:04.153Z,3.53
2019-05-12T07:11:08.661Z,3.77
2019-05-12T07:16:16.658Z,4.10
2019-05-12T07:21:24.193Z,3.80
2019-05-12T07:26:26.722Z,4.07
2019-05-12T07:31:31.171Z,4.07
2019-05-12T07:36:35.578Z,3.83
2019-05-12T07:41:42.470Z,4.13
2019-05-12T07:46:49.443Z,3.87
2019-05-12T07:51:54.221Z,3.63
2019-05-12T07:57:03.514Z,3.57
2019-05-12T08:02:04.721Z,3.67
2019-05-12T08:07:09.511Z,3.53
2019-05-12T08:12:19.071Z,3.40
2019-05-12T08:17:19.968Z,3.43
2019-05-12T08:22:29.178Z,3.53
2019-05-12T08:27:30.505Z,3.20
2019-05-12T08:32:34.865Z,3.20
2019-05-12T08:37:39.237Z,2.93
2019-05-12T08:42:43.878Z,3.33
2019-05-12T08:47:48.232Z,2.87
2019-05-12T08:52:53.864Z,3.27
2019-05-12T08:57:58.323Z,2.70
2019-05-12T09:03:03.553Z,2.77
2019-05-12T09:08:08.120Z,3.00
2019-05-12T09:13:14.419Z,2.77
2019-05-12T09:18:19.141Z,2.87
2019-05-12T09:23:24.042Z,3.00
2019-05-12T09:28:42.898Z,2.90
2019-05-12T09:33:35.709Z,2.70
2019-05-12T09:38:41.098Z,2.20
2019-05-12T09:43:50.288Z,2.53
2019-05-12T09:48:52.954Z,2.87
2019-05-12T09:53:57.801Z,2.70
2019-05-12T09:59:16.665Z,2.60
2019-05-12T10:04:10.245Z,2.73
2019-05-12T10:09:19.425Z,2.43
2019-05-12T10:14:20.641Z,2.50
2019-05-12T10:19:26.095Z,1.97
2019-05-12T10:24:32.556Z,1.83
2019-05-12T10:29:36.570Z,2.10
2019-05-12T10:34:41.024Z,2.10
2019-05-12T10:39:45.415Z,2.20
2019-05-12T10:44:49.776Z,2.10
2019-05-12T10:49:54.161Z,2.03
2019-05-12T10:54:58.592Z,1.97
2019-05-12T11:00:04.605Z,2.07
2019-05-12T11:05:12.533Z,1.80
2019-05-12T11:10:20.027Z,2.10
2019-05-12T11:15:25.369Z,2.10
2019-05-12T11:20:29.962Z,1.80
2019-05-12T11:25:34.338Z,1.90
2019-05-12T11:30:38.694Z,1.80
2019-05-12T11:35:43.605Z,1.90
2019-05-12T11:40:48.080Z,2.00
2019-05-12T11:45:53.459Z,1.87
2019-05-12T11:50:58.182Z,1.97
2019-05-12T11:56:07.680Z,1.80
2019-05-12T12:01:10.304Z,1.60
2019-05-12T12:06:14.630Z,1.50
2019-05-12T12:11:24.759Z,1.70
2019-05-12T12:16:25.024Z,1.90
2019-05-12T12:21:32.022Z,1.70
2019-05-12T12:26:37.286Z,1.80
2019-05-12T12:31:52.116Z,1.60
2019-05-12T12:36:56.487Z,1.57
2019-05-12T12:42:04.373Z,1.70
2019-05-12T12:47:08.572Z,1.40
2019-05-12T12:52:13.785Z,1.47
2019-05-12T12:57:19.228Z,1.50
2019-05-12T13:02:24.734Z,1.53
2019-05-12T13:07:30.426Z,1.43
2019-05-12T13:12:35.857Z,1.47
2019-05-12T13:17:41.904Z,1.30
2019-05-12T13:22:46.437Z,1.60
2019-05-12T13:27:50.826Z,1.40
2019-05-12T13:32:55.207Z,1.40
2019-05-12T13:38:00.567Z,1.60
2019-05-12T13:43:09.191Z,1.43
2019-05-12T13:48:15.767Z,1.53
2019-05-12T13:53:18.775Z,1.43
2019-05-12T13:58:28.222Z,1.40
2019-05-12T14:03:33.705Z,1.20
2019-05-12T14:08:44.595Z,1.37
2019-05-12T14:13:52.421Z,1.80
2019-05-12T14:19:00.288Z,1.30
2019-05-12T14:24:05.002Z,1.50
2019-05-12T14:29:09.349Z,1.40
2019-05-12T14:34:19.282Z,1.30
2019-05-12T14:39:19.889Z,1.40
2019-05-12T14:44:24.395Z,1.40
2019-05-12T14:49:30.468Z,1.10
2019-05-12T14:54:35.140Z,1.27
2019-05-12T14:59:41.240Z,1.40
2019-05-12T15:04:45.799Z,1.40
2019-05-12T15:09:53.915Z,1.30
2019-05-12T15:14:57.144Z,1.33
2019-05-12T15:20:06.646Z,1.40
2019-05-12T15:25:07.681Z,1.40
2019-05-12T15:30:20.191Z,1.50
2019-05-12T15:35:18.676Z,1.37
2019-05-12T15:40:23.657Z,1.40
2019-05-12T15:45:28.334Z,1.23
2019-05-12T15:50:34.183Z,1.03
2019-05-12T15:55:38.745Z,1.50
2019-05-12T16:00:43.802Z,1.70
2019-05-12T16:05:48.348Z,1.40
2019-05-12T16:10:53.626Z,1.40
2019-05-12T16:16:03.551Z,1.53
2019-05-12T16:21:09.212Z,1.50
2019-05-12T16:26:14.670Z,1.33
2019-05-12T16:31:18.111Z,1.77
2019-05-12T16:36:22.458Z,1.20
2019-05-12T16:41:29.817Z,1.40
2019-05-12T16:46:33.957Z,1.50
2019-05-12T16:51:39.132Z,1.13
2019-05-12T16:56:43.490Z,1.40
2019-05-12T17:01:47.916Z,1.97
2019-05-12T17:06:52.273Z,1.20
2019-05-12T17:11:56.673Z,1.20
2019-05-12T17:17:01.021Z,1.47
2019-05-12T17:22:05.397Z,1.90
2019-05-12T17:27:15.869Z,1.70
2019-05-12T17:32:17.334Z,1.47
2019-05-12T17:37:36.345Z,1.40
2019-05-12T17:42:38.509Z,1.40
2019-05-12T17:47:44.857Z,1.50
2019-05-12T17:52:56.885Z,1.47
2019-05-12T17:58:03.670Z,1.10
2019-05-12T18:03:25.990Z,1.40
2019-05-12T18:08:38.144Z,1.50
2019-05-12T18:13:40.245Z,1.53
2019-05-12T18:18:45.934Z,1.37
2019-05-12T18:23:50.409Z,1.70
2019-05-12T18:28:59.177Z,1.90
2019-05-12T18:34:04.989Z,1.52
2019-05-12T18:39:11.860Z,1.53
2019-05-12T18:44:25.396Z,1.30
2019-05-12T18:49:23.883Z,1.47
2019-05-12T18:54:27.777Z,1.60
2019-05-12T18:59:34.003Z,1.42
2019-05-12T19:04:39.839Z,1.60
2019-05-12T19:09:47.108Z,1.50
2019-05-12T19:14:52.571Z,1.40
2019-05-12T19:19:59.934Z,1.47
2019-05-12T19:25:04.012Z,1.40
2019-05-12T19:30:08.767Z,1.27
2019-05-12T19:35:20.033Z,1.67
2019-05-12T19:40:21.242Z,1.47
2019-05-12T19:45:25.604Z,1.17
2019-05-12T19:50:30.010Z,1.30
2019-05-12T19:55:34.478Z,1.60
2019-05-12T20:00:38.865Z,1.50
2019-05-12T20:05:43.477Z,1.50
2019-05-12T20:10:49.731Z,1.40
2019-05-12T20:15:54.499Z,1.10
2019-05-12T20:20:58.924Z,1.30
2019-05-12T20:26:04.015Z,1.30
2019-05-12T20:31:08.704Z,1.20
2019-05-12T20:36:14.250Z,1.17
2019-05-12T20:41:23.476Z,1.43
2019-05-12T20:46:29.336Z,1.47
2019-05-12T20:51:35.495Z,1.60
2019-05-12T20:56:43.488Z,1.30
2019-05-12T21:01:50.341Z,1.17
2019-05-12T21:06:57.265Z,1.40
2019-05-12T21:12:01.639Z,1.33
2019-05-12T21:17:15.797Z,1.60
2019-05-12T21:22:17.444Z,1.40
2019-05-12T21:27:22.951Z,1.37
2019-05-12T21:32:28.877Z,1.30
2019-05-12T21:37:37.025Z,1.30
2019-05-12T21:42:39.532Z,1.27
2019-05-12T21:47:44.570Z,1.60
2019-05-12T21:52:49.001Z,1.70
2019-05-12T21:57:53.831Z,1.20
2019-05-12T22:03:02.667Z,1.43
2019-05-12T22:08:06.776Z,1.33
2019-05-12T22:13:17.590Z,1.50
2019-05-12T22:18:18.379Z,1.47
2019-05-12T22:23:24.750Z,1.17
2019-05-12T22:28:28.794Z,1.27
2019-05-12T22:33:33.489Z,1.13
2019-05-12T22:38:38.147Z,1.20
2019-05-12T22:43:45.671Z,1.30
2019-05-12T22:48:48.624Z,1.20
2019-05-12T22:53:53.906Z,1.30
2019-05-12T22:58:59.998Z,1.97
2019-05-12T23:04:04.474Z,1.60
2019-05-12T23:09:08.828Z,1.30
2019-05-12T23:14:20.531Z,1.53
2019-05-12T23:19:19.406Z,1.37
2019-05-12T23:24:23.865Z,1.40
2019-05-12T23:29:31.000Z,1.30
2019-05-12T23:34:34.377Z,1.20
2019-05-12T23:39:39.906Z,1.00
2019-05-12T23:44:44.431Z,1.00
2019-05-12T23:49:48.789Z,1.17
2019-05-12T23:54:54.223Z,1.50
2019-05-12T23:59:58.696Z,1.20
